createdAt,value
2023-02-05T00:02:22.934Z,3.50
2023-02-05T00:04:50.933Z,2.90
2023-02-05T00:07:20.497Z,3.00
2023-02-05T00:09:48.402Z,2.17
2023-02-05T00:12:16.324Z,2.33
2023-02-05T00:14:44.316Z,2.40
2023-02-05T00:17:12.224Z,2.10
2023-02-05T00:19:40.157Z,2.30
2023-02-05T00:22:08.140Z,2.43
2023-02-05T00:24:37.595Z,2.20
2023-02-05T00:27:05.530Z,2.00
2023-02-05T00:29:33.461Z,2.27
2023-02-05T00:32:01.381Z,2.23
2023-02-05T00:34:29.305Z,2.20
2023-02-05T00:36:57.159Z,1.83
2023-02-05T00:39:25.101Z,2.10
2023-02-05T00:41:54.360Z,2.00
2023-02-05T00:44:22.271Z,2.10
2023-02-05T00:46:50.293Z,1.80
2023-02-05T00:49:18.203Z,2.00
2023-02-05T00:51:46.136Z,2.27
2023-02-05T00:54:14.129Z,2.10
2023-02-05T00:56:42.068Z,1.80
2023-02-05T00:59:11.337Z,1.60
2023-02-05T01:01:39.389Z,2.00
2023-02-05T01:04:07.326Z,2.20
2023-02-05T01:06:35.282Z,1.90
2023-02-05T01:09:03.263Z,2.10
2023-02-05T01:11:31.268Z,1.67
2023-02-05T01:13:59.202Z,1.60
2023-02-05T01:16:28.535Z,1.80
2023-02-05T01:18:56.751Z,1.50
2023-02-05T01:21:25.779Z,1.63
2023-02-05T01:23:54.541Z,1.60
2023-02-05T01:26:22.592Z,2.07
2023-02-05T01:28:50.533Z,1.37
2023-02-05T01:31:20.603Z,2.20
2023-02-05T01:33:49.961Z,1.37
2023-02-05T01:36:17.860Z,1.40
2023-02-05T01:38:45.743Z,1.50
2023-02-05T01:41:14.434Z,1.40
2023-02-05T01:43:42.440Z,1.40
2023-02-05T01:46:21.491Z,1.20
2023-02-05T01:48:55.437Z,1.37
2023-02-05T01:51:25.459Z,1.60
2023-02-05T01:53:53.677Z,1.50
2023-02-05T01:56:24.252Z,1.30
2023-02-05T01:58:57.783Z,1.50
2023-02-05T02:01:27.271Z,1.50
2023-02-05T02:03:58.789Z,1.27
2023-02-05T02:06:26.746Z,1.40
2023-02-05T02:08:54.717Z,1.20
2023-02-05T02:11:24.765Z,1.30
2023-02-05T02:13:56.394Z,1.53
2023-02-05T02:16:25.681Z,1.30
2023-02-05T02:18:54.835Z,1.33
2023-02-05T02:21:41.394Z,1.30
2023-02-05T02:24:33.245Z,1.30
2023-02-05T02:27:14.971Z,2.50
2023-02-05T02:29:51.005Z,2.47
2023-02-05T02:32:25.004Z,1.80
2023-02-05T02:35:02.130Z,1.73
2023-02-05T02:37:37.301Z,8.80
2023-02-05T02:40:12.322Z,2.73
2023-02-05T02:42:46.758Z,1.30
2023-02-05T02:45:18.250Z,2.73
2023-02-05T02:47:50.142Z,3.13
2023-02-05T02:50:22.777Z,1.83
2023-02-05T02:52:53.125Z,1.73
2023-02-05T02:55:22.412Z,1.73
2023-02-05T02:57:52.235Z,2.80
2023-02-05T03:00:25.145Z,1.77
2023-02-05T03:02:58.704Z,1.50
2023-02-05T03:05:29.082Z,1.40
2023-02-05T03:08:02.330Z,2.00
2023-02-05T03:10:36.852Z,1.43
2023-02-05T03:13:04.893Z,1.40
2023-02-05T03:15:34.923Z,1.20
2023-02-05T03:18:03.230Z,1.20
2023-02-05T03:20:35.983Z,1.40
2023-02-05T03:23:03.972Z,1.53
2023-02-05T03:25:33.803Z,1.10
2023-02-05T03:28:02.226Z,1.57
2023-02-05T03:30:35.965Z,1.60
2023-02-05T03:33:17.241Z,1.73
2023-02-05T03:35:53.757Z,1.70
2023-02-05T03:38:34.957Z,1.00
2023-02-05T03:41:14.686Z,1.57
2023-02-05T03:43:51.348Z,2.23
2023-02-05T03:46:29.533Z,1.80
2023-02-05T03:49:08.426Z,1.52
2023-02-05T03:51:40.852Z,2.10
2023-02-05T03:54:17.578Z,2.05
2023-02-05T03:56:54.140Z,2.13
2023-02-05T03:59:22.919Z,1.83
2023-02-05T04:01:53.020Z,1.98
2023-02-05T04:04:21.506Z,1.80
2023-02-05T04:06:52.148Z,1.60
2023-02-05T04:09:20.261Z,2.03
2023-02-05T04:11:48.131Z,1.60
2023-02-05T04:14:16.360Z,1.60
2023-02-05T04:16:44.326Z,1.60
2023-02-05T04:19:13.618Z,1.63
2023-02-05T04:21:41.561Z,1.40
2023-02-05T04:24:09.642Z,1.50
2023-02-05T04:26:37.699Z,2.25
2023-02-05T04:29:05.622Z,1.83
2023-02-05T04:31:33.626Z,1.90
2023-02-05T04:34:01.563Z,2.13
2023-02-05T04:36:30.836Z,2.00
2023-02-05T04:38:58.746Z,1.73
2023-02-05T04:41:26.748Z,1.65
2023-02-05T04:43:54.687Z,2.50
2023-02-05T04:46:22.678Z,2.10
2023-02-05T04:48:50.576Z,2.03
2023-02-05T04:51:18.585Z,1.25
2023-02-05T04:53:48.224Z,2.10
2023-02-05T04:56:18.395Z,2.10
2023-02-05T04:58:46.829Z,1.60
2023-02-05T05:01:15.914Z,2.00
2023-02-05T05:03:44.423Z,1.88
2023-02-05T05:06:13.175Z,2.03
2023-02-05T05:08:41.381Z,1.65
2023-02-05T05:11:12.423Z,1.80
2023-02-05T05:13:40.653Z,2.00
2023-02-05T05:16:10.737Z,2.30
2023-02-05T05:18:39.528Z,1.65
2023-02-05T05:21:08.390Z,1.63
2023-02-05T05:23:37.445Z,1.85
2023-02-05T05:26:06.929Z,1.90
2023-02-05T05:28:36.853Z,2.13
2023-02-05T05:31:09.618Z,2.05
2023-02-05T05:33:37.974Z,1.75
2023-02-05T05:36:07.051Z,2.47
2023-02-05T05:38:35.008Z,4.40
2023-02-05T05:41:20.690Z,3.15
2023-02-05T05:43:50.512Z,2.70
2023-02-05T05:46:21.932Z,3.95
2023-02-05T05:48:51.451Z,2.85
2023-02-05T05:51:20.093Z,2.80
2023-02-05T05:53:49.780Z,2.53
2023-02-05T05:56:19.020Z,2.70
2023-02-05T05:58:47.530Z,2.33
2023-02-05T06:01:20.338Z,3.30
2023-02-05T06:03:48.404Z,2.85
2023-02-05T06:06:16.773Z,4.80
2023-02-05T06:08:44.763Z,3.90
2023-02-05T06:11:12.752Z,6.88
2023-02-05T06:13:41.781Z,5.22
2023-02-05T06:16:09.796Z,5.00
2023-02-05T06:18:39.394Z,4.65
2023-02-05T06:21:07.405Z,3.50
2023-02-05T06:23:35.653Z,4.50
2023-02-05T06:26:03.570Z,3.67
2023-02-05T06:28:32.370Z,3.05
2023-02-05T06:31:00.425Z,3.13
2023-02-05T06:33:28.473Z,3.20
2023-02-05T06:35:57.775Z,4.00
2023-02-05T06:38:26.032Z,4.07
2023-02-05T06:40:53.974Z,3.88
2023-02-05T06:43:21.916Z,4.75
2023-02-05T06:45:49.924Z,4.45
2023-02-05T06:48:18.182Z,4.50
2023-02-05T06:50:46.177Z,4.57
2023-02-05T06:53:15.777Z,5.07
2023-02-05T06:55:43.752Z,5.10
2023-02-05T06:58:11.677Z,4.13
2023-02-05T07:00:39.621Z,4.97
2023-02-05T07:03:07.665Z,4.68
2023-02-05T07:05:36.011Z,4.93
2023-02-05T07:08:06.659Z,5.80
2023-02-05T07:10:36.034Z,7.35
2023-02-05T07:13:05.842Z,5.83
2023-02-05T07:15:36.238Z,18.23
2023-02-05T07:18:04.895Z,18.80
2023-02-05T07:20:32.828Z,24.47
2023-02-05T07:23:00.728Z,14.80
2023-02-05T07:25:28.842Z,6.90
2023-02-05T07:27:58.212Z,4.80
2023-02-05T07:30:26.202Z,5.57
2023-02-05T07:32:54.264Z,8.33
2023-02-05T07:35:22.339Z,6.53
2023-02-05T07:37:50.298Z,5.40
2023-02-05T07:40:18.780Z,5.93
2023-02-05T07:42:46.700Z,4.97
2023-02-05T07:45:16.114Z,6.17
2023-02-05T07:47:43.988Z,6.10
2023-02-05T07:50:11.897Z,6.37
2023-02-05T07:52:39.826Z,5.07
2023-02-05T07:55:08.179Z,6.90
2023-02-05T07:57:36.241Z,5.37
2023-02-05T08:00:05.627Z,8.97
2023-02-05T08:02:34.966Z,26.30
2023-02-05T08:05:02.920Z,11.70
2023-02-05T08:07:31.151Z,11.23
2023-02-05T08:09:59.201Z,7.53
2023-02-05T08:12:27.205Z,5.60
2023-02-05T08:14:55.151Z,4.80
2023-02-05T08:17:23.028Z,6.30
2023-02-05T08:19:53.041Z,4.60
2023-02-05T08:22:20.960Z,3.70
2023-02-05T08:24:48.845Z,6.80
2023-02-05T08:27:16.890Z,4.83
2023-02-05T08:29:47.564Z,4.57
2023-02-05T08:32:20.849Z,6.03
2023-02-05T08:34:48.826Z,5.17
2023-02-05T08:37:18.261Z,7.50
2023-02-05T08:39:46.356Z,8.00
2023-02-05T08:42:14.375Z,9.17
2023-02-05T08:44:42.344Z,9.60
2023-02-05T08:47:10.633Z,11.40
2023-02-05T08:49:38.680Z,13.70
2023-02-05T08:52:06.746Z,11.77
2023-02-05T08:54:36.069Z,8.47
2023-02-05T08:57:04.146Z,9.00
2023-02-05T08:59:32.110Z,9.07
2023-02-05T09:02:00.145Z,12.47
2023-02-05T09:04:28.162Z,9.30
2023-02-05T09:06:56.098Z,8.00
2023-02-05T09:09:24.213Z,7.23
2023-02-05T09:11:53.492Z,6.33
2023-02-05T09:14:21.464Z,6.90
2023-02-05T09:16:49.420Z,8.03
2023-02-05T09:19:17.402Z,8.83
2023-02-05T09:21:45.454Z,5.83
2023-02-05T09:24:13.498Z,4.60
2023-02-05T09:26:41.418Z,4.23
2023-02-05T09:29:10.668Z,3.93
2023-02-05T09:31:38.747Z,4.20
2023-02-05T09:34:06.668Z,3.80
2023-02-05T09:36:34.791Z,2.63
2023-02-05T09:39:15.015Z,2.90
2023-02-05T09:41:57.098Z,2.60
2023-02-05T09:44:50.138Z,2.80
2023-02-05T09:47:23.991Z,2.93
2023-02-05T09:50:00.957Z,2.77
2023-02-05T09:52:34.398Z,5.73
2023-02-05T09:55:07.591Z,5.90
2023-02-05T09:57:38.240Z,5.27
2023-02-05T10:00:19.592Z,3.10
2023-02-05T10:02:52.247Z,3.77
2023-02-05T10:05:25.055Z,3.40
2023-02-05T10:08:02.833Z,2.87
2023-02-05T10:10:38.045Z,3.10
2023-02-05T10:13:30.151Z,3.47
2023-02-05T10:16:33.427Z,3.93
2023-02-05T10:19:34.891Z,3.20
2023-02-05T10:22:13.383Z,3.30
2023-02-05T10:25:19.766Z,4.10
2023-02-05T10:27:59.075Z,3.67
2023-02-05T10:30:31.595Z,3.30
2023-02-05T10:33:01.358Z,3.37
2023-02-05T10:35:44.193Z,3.63
2023-02-05T10:38:17.536Z,3.60
2023-02-05T10:40:46.829Z,4.30
2023-02-05T10:43:22.720Z,3.40
2023-02-05T10:45:52.377Z,3.93
2023-02-05T10:48:38.220Z,3.20
2023-02-05T10:51:10.448Z,3.03
2023-02-05T10:53:38.433Z,2.87
2023-02-05T10:56:07.720Z,2.97
2023-02-05T10:58:47.653Z,4.00
2023-02-05T11:01:17.373Z,3.90
2023-02-05T11:03:53.486Z,3.40
2023-02-05T11:06:25.285Z,3.50
2023-02-05T11:08:53.492Z,3.33
2023-02-05T11:11:24.509Z,3.53
2023-02-05T11:13:56.138Z,2.10
2023-02-05T11:16:25.202Z,1.63
2023-02-05T11:19:01.747Z,2.00
2023-02-05T11:21:55.534Z,1.30
2023-02-05T11:24:32.222Z,1.40
2023-02-05T11:27:30.059Z,1.67
2023-02-05T11:30:00.890Z,1.37
2023-02-05T11:32:35.941Z,1.20
2023-02-05T11:35:20.202Z,1.20
2023-02-05T11:37:53.763Z,1.10
2023-02-05T11:40:24.238Z,1.07
2023-02-05T11:43:03.114Z,1.40
2023-02-05T11:45:32.555Z,1.30
2023-02-05T11:48:03.853Z,1.53
2023-02-05T11:50:32.888Z,1.30
2023-02-05T11:53:14.419Z,1.60
2023-02-05T11:55:43.593Z,1.47
2023-02-05T11:58:34.937Z,1.50
2023-02-05T12:01:06.941Z,2.40
2023-02-05T12:03:36.219Z,1.70
2023-02-05T12:06:12.884Z,1.43
2023-02-05T12:08:48.133Z,1.87
2023-02-05T12:11:58.045Z,1.47
2023-02-05T12:14:34.824Z,1.47
2023-02-05T12:17:18.385Z,1.70
2023-02-05T12:19:52.824Z,1.60
2023-02-05T12:22:31.491Z,1.73
2023-02-05T12:25:14.876Z,1.80
2023-02-05T12:27:57.148Z,1.73
2023-02-05T12:30:37.863Z,1.07
2023-02-05T12:33:35.634Z,1.57
2023-02-05T12:36:19.487Z,1.80
2023-02-05T12:39:03.207Z,1.50
2023-02-05T12:41:41.821Z,1.40
2023-02-05T12:44:22.970Z,1.60
2023-02-05T12:47:02.071Z,1.40
2023-02-05T12:49:47.672Z,1.47
2023-02-05T12:52:32.181Z,1.20
2023-02-05T12:55:20.564Z,1.60
2023-02-05T12:57:57.312Z,1.50
2023-02-05T13:00:29.700Z,1.47
2023-02-05T13:03:08.418Z,1.40
2023-02-05T13:05:41.288Z,1.70
2023-02-05T13:08:16.836Z,1.60
2023-02-05T13:10:51.374Z,1.60
2023-02-05T13:13:25.548Z,1.73
2023-02-05T13:16:02.274Z,1.47
2023-02-05T13:18:34.217Z,1.93
2023-02-05T13:21:23.196Z,2.00
2023-02-05T13:24:20.942Z,1.63
2023-02-05T13:27:06.923Z,2.40
2023-02-05T13:29:46.338Z,2.03
2023-02-05T13:32:17.364Z,2.20
2023-02-05T13:34:45.437Z,1.90
2023-02-05T13:37:43.998Z,1.87
2023-02-05T13:40:34.825Z,1.63
2023-02-05T13:43:35.397Z,1.60
2023-02-05T13:46:43.330Z,2.10
2023-02-05T13:49:52.797Z,1.77
2023-02-05T13:52:41.823Z,1.83
2023-02-05T13:55:30.252Z,1.70
2023-02-05T13:58:20.436Z,1.53
2023-02-05T14:00:57.810Z,1.93
2023-02-05T14:03:35.688Z,1.57
2023-02-05T14:06:15.625Z,1.70
2023-02-05T14:08:44.373Z,1.97
2023-02-05T14:11:12.889Z,2.00
2023-02-05T14:13:41.488Z,1.90
2023-02-05T14:16:36.225Z,1.90
2023-02-05T14:19:21.796Z,1.93
2023-02-05T14:22:12.698Z,2.20
2023-02-05T14:24:46.684Z,2.30
2023-02-05T14:27:47.874Z,1.73
2023-02-05T14:30:37.737Z,2.23
2023-02-05T14:33:36.710Z,2.10
2023-02-05T14:36:39.905Z,2.27
2023-02-05T14:39:20.537Z,2.53
2023-02-05T14:41:54.988Z,2.20
2023-02-05T14:44:28.092Z,2.40
2023-02-05T14:47:06.345Z,2.90
2023-02-05T14:49:41.311Z,2.20
2023-02-05T14:52:24.604Z,2.30
2023-02-05T14:54:59.468Z,2.30
2023-02-05T14:57:33.448Z,2.50
2023-02-05T15:00:05.574Z,2.30
2023-02-05T15:03:19.798Z,2.00
2023-02-05T15:05:53.904Z,2.47
2023-02-05T15:08:40.218Z,2.87
2023-02-05T15:11:14.610Z,3.03
2023-02-05T15:13:43.263Z,2.10
2023-02-05T15:16:22.348Z,2.30
2023-02-05T15:18:52.912Z,3.10
2023-02-05T15:21:27.272Z,2.57
2023-02-05T15:24:02.380Z,2.63
2023-02-05T15:26:42.436Z,3.10
2023-02-05T15:29:15.892Z,3.00
2023-02-05T15:31:48.726Z,3.43
2023-02-05T15:34:33.941Z,3.27
2023-02-05T15:37:12.801Z,3.00
2023-02-05T15:39:48.112Z,3.33
2023-02-05T15:42:20.057Z,3.37
2023-02-05T15:44:48.026Z,3.10
2023-02-05T15:47:21.976Z,3.60
2023-02-05T15:49:52.669Z,3.43
2023-02-05T15:52:23.376Z,3.60
2023-02-05T15:54:54.933Z,3.20
2023-02-05T15:57:26.092Z,3.77
2023-02-05T15:59:55.308Z,5.10
2023-02-05T16:02:26.048Z,4.07
2023-02-05T16:04:57.446Z,3.87
2023-02-05T16:07:27.493Z,4.90
2023-02-05T16:09:58.977Z,2.97
2023-02-05T16:12:27.267Z,5.70
2023-02-05T16:14:59.677Z,4.40
2023-02-05T16:17:32.648Z,4.20
2023-02-05T16:20:13.639Z,5.03
2023-02-05T16:22:45.531Z,5.90
2023-02-05T16:25:27.950Z,6.60
2023-02-05T16:27:57.177Z,7.60
2023-02-05T16:30:31.431Z,4.30
2023-02-05T16:33:02.051Z,4.50
2023-02-05T16:35:34.609Z,3.23
2023-02-05T16:38:08.678Z,2.90
2023-02-05T16:40:43.028Z,2.87
2023-02-05T16:43:32.137Z,3.70
2023-02-05T16:46:26.421Z,3.70
2023-02-05T16:48:56.589Z,3.40
2023-02-05T16:51:33.936Z,4.60
2023-02-05T16:54:03.365Z,5.77
2023-02-05T16:56:35.948Z,6.00
2023-02-05T16:59:05.945Z,3.80
2023-02-05T17:01:39.700Z,4.90
2023-02-05T17:04:08.387Z,4.10
2023-02-05T17:06:38.497Z,5.00
2023-02-05T17:09:07.148Z,4.03
2023-02-05T17:11:39.118Z,3.73
2023-02-05T17:14:14.573Z,4.70
2023-02-05T17:16:43.297Z,4.53
2023-02-05T17:19:23.796Z,4.10
2023-02-05T17:22:19.207Z,4.83
2023-02-05T17:24:48.522Z,4.47
2023-02-05T17:27:20.616Z,4.27
2023-02-05T17:29:49.608Z,3.77
2023-02-05T17:32:19.756Z,3.43
2023-02-05T17:34:48.677Z,5.17
2023-02-05T17:37:17.096Z,4.73
2023-02-05T17:39:45.015Z,66.83
2023-02-05T17:42:22.381Z,34.60
2023-02-05T17:44:51.246Z,34.30
2023-02-05T17:47:20.033Z,13.30
2023-02-05T17:49:48.060Z,6.90
2023-02-05T17:52:16.371Z,6.50
2023-02-05T17:54:45.248Z,5.77
2023-02-05T17:57:16.881Z,5.00
2023-02-05T17:59:47.219Z,4.40
2023-02-05T18:02:15.848Z,4.80
2023-02-05T18:04:44.823Z,4.53
2023-02-05T18:07:20.583Z,5.10
2023-02-05T18:09:48.552Z,4.10
2023-02-05T18:12:16.493Z,4.27
2023-02-05T18:14:45.915Z,4.33
2023-02-05T18:17:13.934Z,4.70
2023-02-05T18:19:41.837Z,4.80
2023-02-05T18:22:09.851Z,4.20
2023-02-05T18:24:39.061Z,3.93
2023-02-05T18:27:08.512Z,3.50
2023-02-05T18:29:37.083Z,4.40
2023-02-05T18:32:07.750Z,6.20
2023-02-05T18:34:35.766Z,4.90
2023-02-05T18:37:03.803Z,5.90
2023-02-05T18:39:31.737Z,12.30
2023-02-05T18:42:00.115Z,10.83
2023-02-05T18:44:28.641Z,15.50
2023-02-05T18:46:56.528Z,9.30
2023-02-05T18:49:26.020Z,7.43
2023-02-05T18:51:54.267Z,8.20
2023-02-05T18:54:22.229Z,9.43
2023-02-05T18:56:51.636Z,7.40
2023-02-05T18:59:21.189Z,9.13
2023-02-05T19:01:49.101Z,10.90
2023-02-05T19:04:18.564Z,10.83
2023-02-05T19:06:52.076Z,11.87
2023-02-05T19:09:21.449Z,7.30
2023-02-05T19:11:50.153Z,8.50
2023-02-05T19:14:20.057Z,6.33
2023-02-05T19:16:48.940Z,7.50
2023-02-05T19:19:20.076Z,6.90
2023-02-05T19:21:51.437Z,7.23
2023-02-05T19:24:19.920Z,6.30
2023-02-05T19:26:49.527Z,7.60
2023-02-05T19:29:19.446Z,11.83
2023-02-05T19:31:48.229Z,11.68
2023-02-05T19:34:16.982Z,10.87
2023-02-05T19:36:45.184Z,12.30
2023-02-05T19:39:15.946Z,10.30
2023-02-05T19:41:45.608Z,10.13
2023-02-05T19:44:13.805Z,10.87
2023-02-05T19:46:44.040Z,9.53
2023-02-05T19:49:14.596Z,7.40
2023-02-05T19:51:44.625Z,5.90
2023-02-05T19:54:14.904Z,7.07
2023-02-05T19:56:43.474Z,5.50
2023-02-05T19:59:12.614Z,6.60
2023-02-05T20:01:43.694Z,6.18
2023-02-05T20:04:16.101Z,7.72
2023-02-05T20:06:46.361Z,7.55
2023-02-05T20:09:17.741Z,5.40
2023-02-05T20:11:47.546Z,7.57
2023-02-05T20:14:17.860Z,8.05
2023-02-05T20:16:46.828Z,7.05
2023-02-05T20:19:16.762Z,10.40
2023-02-05T20:21:46.011Z,9.30
2023-02-05T20:24:16.959Z,8.38
2023-02-05T20:26:47.752Z,8.50
2023-02-05T20:29:32.993Z,8.95
2023-02-05T20:32:02.184Z,9.10
2023-02-05T20:34:33.329Z,9.20
2023-02-05T20:37:05.506Z,9.70
2023-02-05T20:39:38.600Z,8.68
2023-02-05T20:42:06.666Z,7.32
2023-02-05T20:44:36.090Z,8.98
2023-02-05T20:47:04.593Z,7.40
2023-02-05T20:49:32.539Z,7.30
2023-02-05T20:52:00.446Z,7.78
2023-02-05T20:54:28.379Z,6.53
2023-02-05T20:56:59.213Z,6.47
2023-02-05T20:59:28.157Z,9.05
2023-02-05T21:01:56.551Z,11.85
2023-02-05T21:04:24.720Z,10.07
2023-02-05T21:06:53.963Z,7.53
2023-02-05T21:09:22.757Z,7.95
2023-02-05T21:11:55.105Z,9.23
2023-02-05T21:14:24.702Z,8.27
2023-02-05T21:16:52.652Z,7.97
2023-02-05T21:19:20.735Z,9.80
2023-02-05T21:21:49.774Z,9.13
2023-02-05T21:24:17.845Z,8.07
2023-02-05T21:26:47.446Z,6.82
2023-02-05T21:29:17.206Z,6.53
2023-02-05T21:31:48.876Z,7.43
2023-02-05T21:34:18.669Z,8.50
2023-02-05T21:36:48.746Z,8.43
2023-02-05T21:39:17.370Z,8.52
2023-02-05T21:41:46.106Z,6.53
2023-02-05T21:44:14.322Z,8.10
2023-02-05T21:46:42.347Z,6.47
2023-02-05T21:49:12.618Z,5.55
2023-02-05T21:51:42.317Z,6.72
2023-02-05T21:54:11.366Z,7.03
2023-02-05T21:56:41.278Z,7.53
2023-02-05T21:59:10.916Z,8.20
2023-02-05T22:01:40.381Z,7.13
2023-02-05T22:04:12.850Z,6.43
2023-02-05T22:06:41.386Z,7.95
2023-02-05T22:09:11.476Z,8.73
2023-02-05T22:11:40.473Z,9.45
2023-02-05T22:14:08.908Z,9.63
2023-02-05T22:16:37.495Z,9.65
2023-02-05T22:19:06.245Z,10.50
2023-02-05T22:21:37.598Z,9.88
2023-02-05T22:24:07.173Z,10.93
2023-02-05T22:26:37.178Z,9.68
2023-02-05T22:29:07.368Z,10.80
2023-02-05T22:31:35.918Z,9.55
2023-02-05T22:34:04.250Z,9.45
2023-02-05T22:36:34.016Z,9.05
2023-02-05T22:39:04.798Z,8.13
2023-02-05T22:41:34.704Z,8.88
2023-02-05T22:44:03.919Z,8.73
2023-02-05T22:46:34.021Z,7.97
2023-02-05T22:49:03.228Z,7.32
2023-02-05T22:51:33.019Z,7.93
2023-02-05T22:54:01.349Z,7.00
2023-02-05T22:56:30.833Z,7.63
2023-02-05T22:59:00.256Z,8.13
2023-02-05T23:01:32.144Z,8.10
2023-02-05T23:04:01.699Z,7.65
2023-02-05T23:06:31.983Z,8.18
2023-02-05T23:09:02.050Z,8.82
2023-02-05T23:11:32.730Z,13.35
2023-02-05T23:14:01.877Z,10.77
2023-02-05T23:16:32.459Z,8.50
2023-02-05T23:19:02.977Z,6.65
2023-02-05T23:21:33.670Z,6.68
2023-02-05T23:24:01.928Z,8.32
2023-02-05T23:26:33.568Z,9.40
2023-02-05T23:29:02.037Z,8.35
2023-02-05T23:31:30.853Z,8.43
2023-02-05T23:33:58.967Z,8.88
2023-02-05T23:36:27.100Z,9.80
2023-02-05T23:38:55.116Z,9.73
2023-02-05T23:41:36.554Z,11.35
2023-02-05T23:44:10.795Z,10.27
2023-02-05T23:46:39.263Z,11.80
2023-02-05T23:49:07.581Z,9.90
2023-02-05T23:51:35.615Z,9.95
2023-02-05T23:54:03.977Z,7.32
2023-02-05T23:56:32.373Z,7.25
2023-02-05T23:59:01.309Z,7.50
